createdAt,value
2018-07-26T00:01:34.053Z,6.13
2018-07-26T00:04:03.059Z,5.37
2018-07-26T00:06:31.946Z,5.50
2018-07-26T00:09:00.649Z,5.30
2018-07-26T00:11:29.466Z,4.30
2018-07-26T00:13:58.223Z,5.67
2018-07-26T00:16:27.095Z,5.83
2018-07-26T00:18:55.896Z,5.63
2018-07-26T00:21:24.820Z,4.73
2018-07-26T00:23:53.645Z,5.77
2018-07-26T00:26:22.658Z,5.00
2018-07-26T00:28:51.519Z,5.47
2018-07-26T00:31:20.317Z,6.03
2018-07-26T00:33:49.231Z,5.83
2018-07-26T00:36:18.146Z,5.73
2018-07-26T00:38:46.901Z,4.90
2018-07-26T00:41:15.812Z,5.63
2018-07-26T00:43:44.912Z,6.20
2018-07-26T00:46:13.747Z,5.47
2018-07-26T00:48:42.667Z,5.37
2018-07-26T00:51:11.419Z,5.10
2018-07-26T00:53:40.199Z,5.30
2018-07-26T00:56:09.133Z,5.60
2018-07-26T00:58:37.783Z,4.97
2018-07-26T01:01:06.536Z,5.20
2018-07-26T01:03:35.441Z,5.37
2018-07-26T01:06:04.379Z,6.23
2018-07-26T01:08:33.125Z,5.80
2018-07-26T01:11:02.031Z,5.60
2018-07-26T01:13:31.153Z,5.10
2018-07-26T01:16:00.388Z,5.30
2018-07-26T01:18:29.145Z,5.10
2018-07-26T01:20:57.968Z,5.93
2018-07-26T01:23:26.889Z,5.60
2018-07-26T01:25:55.781Z,5.47
2018-07-26T01:28:24.580Z,5.80
2018-07-26T01:30:53.393Z,6.20
2018-07-26T01:33:22.189Z,6.17
2018-07-26T01:35:51.045Z,5.37
2018-07-26T01:38:19.834Z,5.27
2018-07-26T01:40:48.589Z,5.27
2018-07-26T01:43:56.804Z,5.10
2018-07-26T01:46:26.680Z,5.63
2018-07-26T01:48:55.615Z,5.50
2018-07-26T01:51:24.511Z,5.70
2018-07-26T01:53:53.156Z,5.30
2018-07-26T01:56:21.865Z,5.50
2018-07-26T01:58:50.687Z,5.97
2018-07-26T02:01:19.604Z,4.93
2018-07-26T02:03:48.342Z,4.93
2018-07-26T02:06:17.539Z,5.13
2018-07-26T02:08:46.342Z,5.40
2018-07-26T02:11:15.136Z,6.03
2018-07-26T02:13:43.983Z,4.90
2018-07-26T02:16:12.890Z,5.63
2018-07-26T02:18:42.057Z,5.20
2018-07-26T02:21:10.853Z,5.50
2018-07-26T02:23:40.221Z,5.70
2018-07-26T02:26:09.406Z,5.27
2018-07-26T02:28:38.320Z,5.50
2018-07-26T02:31:07.665Z,5.73
2018-07-26T02:33:36.782Z,5.50
2018-07-26T02:36:05.662Z,4.97
2018-07-26T02:38:34.372Z,5.80
2018-07-26T02:41:03.139Z,6.30
2018-07-26T02:43:32.074Z,5.67
2018-07-26T02:46:01.021Z,6.70
2018-07-26T02:48:29.839Z,5.20
2018-07-26T02:50:58.716Z,5.40
2018-07-26T02:53:27.719Z,5.23
2018-07-26T02:55:57.650Z,5.97
2018-07-26T02:58:26.587Z,5.80
2018-07-26T03:00:55.413Z,5.80
2018-07-26T03:03:24.177Z,5.63
2018-07-26T03:05:53.178Z,6.23
2018-07-26T03:08:22.166Z,6.50
2018-07-26T03:10:50.976Z,5.47
2018-07-26T03:13:19.741Z,5.83
2018-07-26T03:15:48.859Z,5.80
2018-07-26T03:18:17.645Z,6.10
2018-07-26T03:20:46.570Z,5.20
2018-07-26T03:23:15.522Z,5.80
2018-07-26T03:25:44.609Z,6.03
2018-07-26T03:28:13.836Z,5.80
2018-07-26T03:30:42.712Z,5.97
2018-07-26T03:33:11.494Z,5.67
2018-07-26T03:35:40.489Z,5.10
2018-07-26T03:38:09.311Z,6.07
2018-07-26T03:40:38.143Z,6.80
2018-07-26T03:43:06.832Z,5.20
2018-07-26T03:45:35.750Z,5.43
2018-07-26T03:48:04.566Z,5.00
2018-07-26T03:50:33.436Z,4.80
2018-07-26T03:53:02.251Z,5.43
2018-07-26T03:55:31.029Z,6.00
2018-07-26T03:57:59.817Z,6.87
2018-07-26T04:00:28.851Z,6.20
2018-07-26T04:02:57.668Z,5.60
2018-07-26T04:05:26.483Z,5.47
2018-07-26T04:07:55.481Z,5.53
2018-07-26T04:10:24.472Z,5.63
2018-07-26T04:12:53.717Z,5.93
2018-07-26T04:15:22.525Z,5.30
2018-07-26T04:17:56.356Z,6.27
2018-07-26T04:20:25.346Z,5.37
2018-07-26T04:22:54.360Z,7.50
2018-07-26T04:25:23.741Z,6.50
2018-07-26T04:27:52.885Z,6.13
2018-07-26T04:30:21.706Z,6.37
2018-07-26T04:32:50.609Z,5.77
2018-07-26T04:35:19.772Z,6.00
2018-07-26T04:37:48.487Z,5.77
2018-07-26T04:40:17.545Z,5.63
2018-07-26T04:42:46.427Z,6.43
2018-07-26T04:45:15.451Z,6.10
2018-07-26T04:47:44.434Z,6.90
2018-07-26T04:50:14.060Z,7.10
2018-07-26T04:52:43.424Z,5.97
2018-07-26T04:55:12.227Z,6.50
2018-07-26T04:57:41.067Z,7.20
2018-07-26T05:00:10.081Z,8.30
2018-07-26T05:02:39.133Z,8.60
2018-07-26T05:05:08.766Z,11.00
2018-07-26T05:07:37.942Z,9.63
2018-07-26T05:10:07.020Z,9.30
2018-07-26T05:12:36.366Z,8.10
2018-07-26T05:15:06.924Z,7.37
2018-07-26T05:17:35.681Z,6.43
2018-07-26T05:20:05.422Z,5.07
2018-07-26T05:22:34.226Z,6.97
2018-07-26T05:25:03.276Z,7.20
2018-07-26T05:27:32.350Z,5.97
2018-07-26T05:30:01.192Z,7.20
2018-07-26T05:32:30.228Z,6.10
2018-07-26T05:34:59.449Z,6.67
2018-07-26T05:37:28.566Z,5.17
2018-07-26T05:39:57.391Z,5.47
2018-07-26T05:42:26.464Z,6.00
2018-07-26T05:44:56.079Z,5.90
2018-07-26T05:47:25.266Z,5.90
2018-07-26T05:49:54.384Z,5.37
2018-07-26T05:52:23.157Z,5.20
2018-07-26T05:54:52.050Z,4.73
2018-07-26T05:57:20.945Z,6.17
2018-07-26T05:59:49.759Z,5.23
2018-07-26T06:02:18.645Z,4.50
2018-07-26T06:04:47.577Z,5.53
2018-07-26T06:07:16.532Z,4.80
2018-07-26T06:09:45.568Z,4.93
2018-07-26T06:12:14.489Z,4.20
2018-07-26T06:14:43.275Z,3.83
2018-07-26T06:17:12.068Z,4.27
2018-07-26T06:19:40.873Z,4.10
2018-07-26T06:22:09.708Z,4.83
2018-07-26T06:24:38.683Z,3.60
2018-07-26T06:27:07.661Z,5.30
2018-07-26T06:29:36.413Z,4.40
2018-07-26T06:32:05.388Z,4.33
2018-07-26T06:34:34.616Z,3.97
2018-07-26T06:37:03.568Z,3.87
2018-07-26T06:39:32.633Z,3.53
2018-07-26T06:42:01.547Z,4.10
2018-07-26T06:44:30.370Z,4.10
2018-07-26T06:46:59.436Z,3.77
2018-07-26T06:49:28.369Z,3.30
2018-07-26T06:51:57.234Z,4.07
2018-07-26T06:54:26.036Z,3.67
2018-07-26T06:56:54.797Z,3.93
2018-07-26T06:59:23.649Z,3.57
2018-07-26T07:01:52.542Z,4.30
2018-07-26T07:04:21.727Z,3.33
2018-07-26T07:06:50.507Z,3.50
2018-07-26T07:09:19.431Z,3.30
2018-07-26T07:11:48.269Z,3.37
2018-07-26T07:14:17.387Z,3.43
2018-07-26T07:16:46.158Z,3.60
2018-07-26T07:19:15.058Z,4.13
2018-07-26T07:21:43.833Z,4.23
2018-07-26T07:24:16.912Z,3.60
2018-07-26T07:26:45.862Z,3.30
2018-07-26T07:29:14.590Z,4.97
2018-07-26T07:31:43.475Z,3.00
2018-07-26T07:34:12.280Z,4.60
2018-07-26T07:36:41.185Z,2.80
2018-07-26T07:39:12.012Z,3.47
2018-07-26T07:41:41.280Z,3.37
2018-07-26T07:44:10.493Z,3.67
2018-07-26T07:46:40.287Z,3.53
2018-07-26T07:49:08.918Z,3.97
2018-07-26T07:51:37.743Z,3.90
2018-07-26T07:54:06.586Z,3.40
2018-07-26T07:56:35.390Z,3.30
2018-07-26T07:59:04.452Z,3.53
2018-07-26T08:01:33.371Z,3.60
2018-07-26T08:04:02.300Z,3.70
2018-07-26T08:06:31.247Z,2.80
2018-07-26T08:09:00.117Z,2.90
2018-07-26T08:11:28.962Z,2.90
2018-07-26T08:13:58.053Z,2.93
2018-07-26T08:16:26.978Z,3.33
2018-07-26T08:18:55.835Z,3.40
2018-07-26T08:21:25.012Z,3.23
2018-07-26T08:23:53.902Z,2.90
2018-07-26T08:26:22.854Z,3.47
2018-07-26T08:28:51.713Z,3.10
2018-07-26T08:31:20.494Z,3.33
2018-07-26T08:33:49.257Z,4.03
2018-07-26T08:36:18.478Z,3.53
2018-07-26T08:38:47.370Z,2.90
2018-07-26T08:41:16.142Z,3.70
2018-07-26T08:43:44.971Z,3.53
2018-07-26T08:46:13.718Z,4.10
2018-07-26T08:48:42.652Z,3.10
2018-07-26T08:51:11.525Z,2.90
2018-07-26T08:53:40.501Z,3.40
2018-07-26T08:56:09.401Z,3.03
2018-07-26T08:58:38.245Z,2.80
2018-07-26T09:01:07.003Z,3.03
2018-07-26T09:03:36.185Z,3.03
2018-07-26T09:06:04.997Z,2.87
2018-07-26T09:08:33.733Z,3.60
2018-07-26T09:11:02.620Z,2.87
2018-07-26T09:13:31.495Z,3.57
2018-07-26T09:16:00.270Z,3.20
2018-07-26T09:18:29.131Z,2.80
2018-07-26T09:20:58.062Z,3.17
2018-07-26T09:23:27.209Z,2.80
2018-07-26T09:25:56.201Z,2.63
2018-07-26T09:28:25.127Z,2.70
2018-07-26T09:30:53.958Z,3.30
2018-07-26T09:33:23.213Z,2.60
2018-07-26T09:35:52.082Z,3.33
2018-07-26T09:38:20.913Z,3.40
2018-07-26T09:40:49.638Z,3.23
2018-07-26T09:43:18.794Z,3.20
2018-07-26T09:45:48.220Z,2.90
2018-07-26T09:48:17.287Z,3.23
2018-07-26T09:50:47.841Z,3.10
2018-07-26T09:53:17.006Z,2.87
2018-07-26T09:55:46.093Z,2.87
2018-07-26T09:58:15.089Z,3.50
2018-07-26T10:00:49.208Z,2.97
2018-07-26T10:03:18.106Z,3.70
2018-07-26T10:05:46.950Z,3.23
2018-07-26T10:08:15.747Z,3.27
2018-07-26T10:10:45.309Z,3.10
2018-07-26T10:13:14.055Z,3.40
2018-07-26T10:15:42.918Z,2.63
2018-07-26T10:18:11.912Z,2.97
2018-07-26T10:20:40.838Z,2.90
2018-07-26T10:23:09.805Z,2.87
2018-07-26T10:25:38.918Z,2.77
2018-07-26T10:28:08.134Z,2.83
2018-07-26T10:30:36.885Z,3.03
2018-07-26T10:33:05.799Z,2.73
2018-07-26T10:35:34.699Z,2.63
2018-07-26T10:38:03.705Z,4.70
2018-07-26T10:40:32.773Z,3.10
2018-07-26T10:43:01.618Z,2.90
2018-07-26T10:45:31.368Z,3.07
2018-07-26T10:48:00.042Z,2.53
2018-07-26T10:50:29.049Z,2.53
2018-07-26T10:52:57.829Z,2.87
2018-07-26T10:55:26.641Z,3.40
2018-07-26T10:57:55.858Z,2.70
2018-07-26T11:00:24.739Z,3.37
2018-07-26T11:02:53.519Z,3.03
2018-07-26T11:05:22.322Z,3.33
2018-07-26T11:07:51.026Z,3.20
2018-07-26T11:10:20.170Z,2.90
2018-07-26T11:12:49.360Z,4.27
2018-07-26T11:15:27.800Z,2.80
2018-07-26T11:17:56.943Z,2.90
2018-07-26T11:20:26.030Z,2.57
2018-07-26T11:22:54.952Z,2.53
2018-07-26T11:25:23.711Z,2.80
2018-07-26T11:27:53.166Z,2.40
2018-07-26T11:30:23.305Z,2.63
2018-07-26T11:32:52.216Z,2.47
2018-07-26T11:35:21.118Z,2.43
2018-07-26T11:37:50.028Z,2.67
2018-07-26T11:40:18.909Z,2.63
2018-07-26T11:42:48.286Z,2.53
2018-07-26T11:45:17.274Z,3.10
2018-07-26T11:47:46.372Z,2.70
2018-07-26T11:50:15.371Z,3.10
2018-07-26T11:52:44.198Z,2.60
2018-07-26T11:55:13.236Z,2.50
2018-07-26T11:57:42.187Z,2.23
2018-07-26T12:00:11.162Z,2.80
2018-07-26T12:02:40.051Z,3.07
2018-07-26T12:05:08.794Z,2.93
2018-07-26T12:07:37.722Z,3.27
2018-07-26T12:10:06.982Z,4.20
2018-07-26T12:12:35.794Z,2.70
2018-07-26T12:15:05.104Z,2.60
2018-07-26T12:17:34.058Z,2.80
2018-07-26T12:20:03.037Z,2.40
2018-07-26T12:22:31.840Z,3.23
2018-07-26T12:25:00.717Z,3.43
2018-07-26T12:27:29.784Z,2.30
2018-07-26T12:29:58.863Z,2.77
2018-07-26T12:32:27.665Z,2.47
2018-07-26T12:34:56.530Z,2.37
2018-07-26T12:37:25.327Z,2.60
2018-07-26T12:39:54.237Z,2.60
2018-07-26T12:42:23.139Z,2.93
2018-07-26T12:44:52.020Z,2.40
2018-07-26T12:47:20.985Z,2.80
2018-07-26T12:49:50.491Z,2.30
2018-07-26T12:52:20.846Z,2.63
2018-07-26T12:54:50.335Z,2.43
2018-07-26T12:57:19.418Z,2.27
2018-07-26T12:59:48.232Z,2.10
2018-07-26T13:02:17.017Z,2.40
2018-07-26T13:04:46.081Z,2.43
2018-07-26T13:07:14.981Z,1.90
2018-07-26T13:09:44.172Z,2.60
2018-07-26T13:12:13.224Z,2.23
2018-07-26T13:14:42.123Z,2.70
2018-07-26T13:17:10.940Z,2.57
2018-07-26T13:19:39.902Z,2.90
2018-07-26T13:22:08.635Z,3.13
2018-07-26T13:24:37.363Z,2.47
2018-07-26T13:27:07.013Z,3.20
2018-07-26T13:29:35.925Z,2.83
2018-07-26T13:32:04.923Z,2.83
2018-07-26T13:34:33.806Z,2.50
2018-07-26T13:37:02.538Z,2.90
2018-07-26T13:39:31.426Z,2.90
2018-07-26T13:42:00.606Z,2.70
2018-07-26T13:44:29.616Z,3.30
2018-07-26T13:46:58.494Z,3.00
2018-07-26T13:49:27.260Z,2.57
2018-07-26T13:51:56.170Z,2.63
2018-07-26T13:54:24.947Z,2.70
2018-07-26T13:56:53.769Z,2.40
2018-07-26T13:59:22.749Z,2.27
2018-07-26T14:01:51.822Z,2.03
2018-07-26T14:04:20.744Z,1.93
2018-07-26T14:06:49.649Z,1.80
2018-07-26T14:09:18.630Z,1.90
2018-07-26T14:11:47.477Z,1.73
2018-07-26T14:14:16.275Z,1.87
2018-07-26T14:16:45.329Z,2.03
2018-07-26T14:19:14.416Z,2.70
2018-07-26T14:21:43.269Z,2.43
2018-07-26T14:24:17.357Z,2.67
2018-07-26T14:26:46.557Z,2.73
2018-07-26T14:29:15.401Z,2.20
2018-07-26T14:31:44.572Z,2.40
2018-07-26T14:34:15.285Z,2.50
2018-07-26T14:36:45.114Z,3.00
2018-07-26T14:39:14.014Z,3.27
2018-07-26T14:41:43.152Z,3.23
2018-07-26T14:44:12.169Z,2.70
2018-07-26T14:46:40.967Z,2.43
2018-07-26T14:49:10.199Z,3.03
2018-07-26T14:51:39.169Z,3.33
2018-07-26T14:54:08.475Z,3.13
2018-07-26T14:56:37.811Z,2.60
2018-07-26T14:59:06.627Z,2.73
2018-07-26T15:01:35.505Z,2.70
2018-07-26T15:04:04.637Z,3.17
2018-07-26T15:06:33.453Z,3.87
2018-07-26T15:09:02.400Z,3.13
2018-07-26T15:11:31.280Z,3.10
2018-07-26T15:14:00.178Z,3.20
2018-07-26T15:16:29.019Z,2.90
2018-07-26T15:18:57.937Z,3.07
2018-07-26T15:21:26.759Z,3.30
2018-07-26T15:23:55.670Z,3.90
2018-07-26T15:26:24.406Z,2.80
2018-07-26T15:28:53.261Z,3.57
2018-07-26T15:31:22.027Z,2.73
2018-07-26T15:33:50.949Z,3.03
2018-07-26T15:36:19.701Z,3.40
2018-07-26T15:38:48.472Z,3.00
2018-07-26T15:41:17.298Z,3.30
2018-07-26T15:43:46.730Z,2.90
2018-07-26T15:46:15.429Z,3.20
2018-07-26T15:48:44.234Z,3.07
2018-07-26T15:51:13.048Z,3.63
2018-07-26T15:53:42.466Z,3.83
2018-07-26T15:56:11.658Z,3.13
2018-07-26T15:58:40.524Z,3.83
2018-07-26T16:01:09.508Z,3.60
2018-07-26T16:03:38.353Z,3.50
2018-07-26T16:06:07.252Z,3.77
2018-07-26T16:08:36.126Z,3.27
2018-07-26T16:11:05.154Z,3.53
2018-07-26T16:13:33.908Z,3.30
2018-07-26T16:16:02.821Z,2.67
2018-07-26T16:18:31.597Z,3.03
2018-07-26T16:21:00.507Z,2.97
2018-07-26T16:23:29.367Z,2.83
2018-07-26T16:25:58.364Z,3.30
2018-07-26T16:28:27.370Z,3.10
2018-07-26T16:30:56.396Z,2.80
2018-07-26T16:33:25.584Z,3.47
2018-07-26T16:35:54.561Z,3.07
2018-07-26T16:38:23.652Z,3.30
2018-07-26T16:40:52.903Z,3.30
2018-07-26T16:43:21.663Z,3.20
2018-07-26T16:45:50.538Z,3.40
2018-07-26T16:48:19.662Z,3.37
2018-07-26T16:50:48.469Z,3.40
2018-07-26T16:53:17.459Z,3.60
2018-07-26T16:55:46.344Z,2.90
2018-07-26T16:58:15.360Z,2.80
2018-07-26T17:00:44.854Z,2.83
2018-07-26T17:03:13.800Z,3.70
2018-07-26T17:05:42.825Z,3.33
2018-07-26T17:08:12.074Z,3.70
2018-07-26T17:10:40.920Z,3.10
2018-07-26T17:13:09.895Z,3.00
2018-07-26T17:15:38.704Z,2.83
2018-07-26T17:18:07.509Z,3.33
2018-07-26T17:20:36.343Z,3.60
2018-07-26T17:23:05.356Z,4.23
2018-07-26T17:25:34.456Z,3.90
2018-07-26T17:28:03.267Z,3.30
2018-07-26T17:30:31.972Z,3.43
2018-07-26T17:33:00.842Z,3.67
2018-07-26T17:35:29.813Z,3.20
2018-07-26T17:37:58.830Z,3.83
2018-07-26T17:40:27.649Z,3.57
2018-07-26T17:42:56.475Z,3.60
2018-07-26T17:45:25.426Z,3.70
2018-07-26T17:47:54.656Z,3.90
2018-07-26T17:50:23.483Z,3.93
2018-07-26T17:52:52.458Z,3.30
2018-07-26T17:55:21.550Z,3.40
2018-07-26T17:57:50.487Z,3.67
2018-07-26T18:00:19.351Z,3.80
2018-07-26T18:02:48.377Z,3.80
2018-07-26T18:05:17.352Z,3.00
2018-07-26T18:07:47.007Z,3.50
2018-07-26T18:10:15.819Z,3.40
2018-07-26T18:12:44.810Z,4.27
2018-07-26T18:15:13.705Z,3.60
2018-07-26T18:17:42.582Z,3.40
2018-07-26T18:20:11.427Z,3.70
2018-07-26T18:22:40.302Z,2.97
2018-07-26T18:25:09.332Z,3.93
2018-07-26T18:27:38.358Z,3.43
2018-07-26T18:30:08.613Z,3.20
2018-07-26T18:32:37.441Z,3.70
2018-07-26T18:35:06.676Z,3.30
2018-07-26T18:37:35.623Z,3.37
2018-07-26T18:40:05.010Z,3.60
2018-07-26T18:42:33.914Z,3.27
2018-07-26T18:45:02.786Z,3.67
2018-07-26T18:47:32.025Z,3.30
2018-07-26T18:50:00.871Z,3.60
2018-07-26T18:52:30.262Z,3.27
2018-07-26T18:54:58.927Z,3.40
2018-07-26T18:57:27.766Z,4.30
2018-07-26T18:59:56.761Z,3.60
2018-07-26T19:02:25.595Z,4.03
2018-07-26T19:04:54.569Z,4.10
2018-07-26T19:07:24.991Z,3.73
2018-07-26T19:09:54.043Z,4.10
2018-07-26T19:12:23.067Z,4.67
2018-07-26T19:14:52.065Z,3.63
2018-07-26T19:17:20.922Z,4.70
2018-07-26T19:19:49.766Z,3.80
2018-07-26T19:22:19.203Z,4.60
2018-07-26T19:24:48.157Z,3.80
2018-07-26T19:27:16.882Z,3.83
2018-07-26T19:29:45.660Z,3.80
2018-07-26T19:32:14.687Z,3.93
2018-07-26T19:34:43.487Z,4.73
2018-07-26T19:37:12.369Z,5.33
2018-07-26T19:39:41.184Z,4.43
2018-07-26T19:42:10.193Z,4.47
2018-07-26T19:44:38.897Z,4.37
2018-07-26T19:47:07.895Z,5.57
2018-07-26T19:49:37.119Z,3.40
2018-07-26T19:52:06.104Z,4.13
2018-07-26T19:54:35.044Z,4.60
2018-07-26T19:57:03.785Z,4.67
2018-07-26T19:59:32.614Z,4.13
2018-07-26T20:02:01.660Z,4.57
2018-07-26T20:04:30.623Z,4.37
2018-07-26T20:06:59.436Z,4.73
2018-07-26T20:09:28.372Z,4.63
2018-07-26T20:11:57.315Z,4.93
2018-07-26T20:14:26.049Z,5.13
2018-07-26T20:16:54.888Z,5.40
2018-07-26T20:19:23.886Z,4.20
2018-07-26T20:21:52.913Z,4.90
2018-07-26T20:24:21.835Z,4.37
2018-07-26T20:26:50.661Z,5.10
2018-07-26T20:29:19.485Z,4.90
2018-07-26T20:31:48.379Z,17.13
2018-07-26T20:34:17.294Z,5.00
2018-07-26T20:36:46.118Z,4.60
2018-07-26T20:39:15.547Z,6.67
2018-07-26T20:41:44.276Z,17.60
2018-07-26T20:44:13.375Z,5.57
2018-07-26T20:46:42.469Z,6.17
2018-07-26T20:49:11.194Z,5.53
2018-07-26T20:51:40.087Z,7.53
2018-07-26T20:54:09.169Z,10.33
2018-07-26T20:56:37.950Z,8.43
2018-07-26T20:59:06.798Z,25.57
2018-07-26T21:01:35.561Z,5.40
2018-07-26T21:04:04.804Z,5.27
2018-07-26T21:06:33.489Z,5.07
2018-07-26T21:09:02.349Z,5.03
2018-07-26T21:11:31.264Z,4.13
2018-07-26T21:14:00.294Z,4.57
2018-07-26T21:16:29.586Z,6.10
2018-07-26T21:18:58.420Z,4.43
2018-07-26T21:21:27.144Z,4.50
2018-07-26T21:23:56.437Z,5.60
2018-07-26T21:26:25.293Z,4.63
2018-07-26T21:28:54.153Z,4.90
2018-07-26T21:31:23.166Z,4.83
2018-07-26T21:33:52.181Z,4.37
2018-07-26T21:36:21.394Z,5.47
2018-07-26T21:38:50.456Z,5.27
2018-07-26T21:41:19.375Z,4.80
2018-07-26T21:43:48.463Z,4.17
2018-07-26T21:46:17.595Z,4.83
2018-07-26T21:48:46.700Z,4.83
2018-07-26T21:51:15.487Z,5.10
2018-07-26T21:53:44.263Z,4.60
2018-07-26T21:56:13.275Z,4.80
2018-07-26T21:58:42.147Z,4.90
2018-07-26T22:01:11.288Z,5.40
2018-07-26T22:03:40.212Z,5.27
2018-07-26T22:06:09.016Z,5.30
2018-07-26T22:08:37.823Z,4.97
2018-07-26T22:11:06.680Z,4.50
2018-07-26T22:13:35.511Z,4.90
2018-07-26T22:16:04.644Z,5.30
2018-07-26T22:18:33.522Z,4.73
2018-07-26T22:21:02.290Z,5.40
2018-07-26T22:23:31.372Z,4.57
2018-07-26T22:26:00.166Z,4.77
2018-07-26T22:28:28.886Z,4.37
2018-07-26T22:30:57.748Z,5.00
2018-07-26T22:33:26.499Z,4.70
2018-07-26T22:35:55.345Z,5.10
2018-07-26T22:38:24.139Z,5.47
2018-07-26T22:40:52.958Z,4.40
2018-07-26T22:43:22.259Z,4.43
2018-07-26T22:45:51.456Z,5.23
2018-07-26T22:48:20.300Z,5.33
2018-07-26T22:50:49.306Z,5.10
2018-07-26T22:53:18.204Z,5.03
2018-07-26T22:55:47.497Z,5.10
2018-07-26T22:58:16.237Z,4.77
2018-07-26T23:00:45.142Z,5.30
2018-07-26T23:03:14.030Z,5.23
2018-07-26T23:05:42.852Z,4.73
2018-07-26T23:08:12.115Z,5.13
2018-07-26T23:10:40.797Z,4.63
2018-07-26T23:13:09.761Z,5.30
2018-07-26T23:15:38.594Z,6.47
2018-07-26T23:18:07.460Z,6.73
2018-07-26T23:20:36.269Z,5.60
2018-07-26T23:23:05.027Z,5.80
2018-07-26T23:25:33.841Z,6.00
2018-07-26T23:28:02.646Z,6.40
2018-07-26T23:30:31.541Z,5.87
2018-07-26T23:33:00.398Z,6.03
2018-07-26T23:35:29.319Z,6.03
2018-07-26T23:37:58.354Z,6.07
2018-07-26T23:40:27.215Z,5.63
2018-07-26T23:42:55.917Z,5.40
2018-07-26T23:45:24.645Z,5.67
2018-07-26T23:47:53.359Z,5.67
2018-07-26T23:50:22.305Z,5.13
2018-07-26T23:52:51.254Z,5.83
2018-07-26T23:55:19.984Z,5.60
2018-07-26T23:57:48.741Z,5.67
